TimeCDT,TemperatureF,Dew PointF,Humidity,Sea Level PressureIn,VisibilityMPH,Wind Direction,Wind SpeedMPH,Gust SpeedMPH,PrecipitationIn,Events,Conditions,WindDirDegrees,DateUTC
12:13 AM,64.4,50.0,59,30.12,10.0,ENE,8.1,-,N/A,,Clear,70,2012-09-01 05:13:00
12:33 AM,62.6,48.2,59,30.12,10.0,East,9.2,-,N/A,,Clear,90,2012-09-01 05:33:00
12:53 AM,62.6,48.2,59,30.12,10.0,East,5.8,-,N/A,,Scattered Clouds,90,2012-09-01 05:53:00
1:13 AM,60.8,48.2,63,30.12,10.0,East,5.8,-,N/A,,Clear,80,2012-09-01 06:13:00
1:33 AM,60.8,50.0,68,30.12,10.0,East,6.9,-,N/A,,Clear,90,2012-09-01 06:33:00
1:52 AM,62.6,48.2,59,30.12,10.0,East,6.9,-,N/A,,Clear,100,2012-09-01 06:52:00
2:13 AM,62.6,50.0,63,30.12,10.0,East,8.1,-,N/A,,Scattered Clouds,100,2012-09-01 07:13:00
2:32 AM,64.4,48.2,56,30.13,10.0,East,6.9,-,N/A,,Scattered Clouds,90,2012-09-01 07:32:00
2:53 AM,64.4,46.4,52,30.13,10.0,East,5.8,-,N/A,,Clear,80,2012-09-01 07:53:00
3:13 AM,64.4,48.2,56,30.13,10.0,ENE,4.6,-,N/A,,Clear,70,2012-09-01 08:13:00
3:32 AM,62.6,48.2,59,30.12,10.0,East,4.6,-,N/A,,Clear,80,2012-09-01 08:32:00
3:53 AM,60.8,48.2,63,30.13,10.0,ENE,3.5,-,N/A,,Scattered Clouds,70,2012-09-01 08:53:00
4:13 AM,62.6,48.2,59,30.13,10.0,ENE,4.6,-,N/A,,Clear,70,2012-09-01 09:13:00
4:32 AM,62.6,48.2,59,30.13,10.0,ENE,4.6,-,N/A,,Clear,70,2012-09-01 09:32:00
4:53 AM,60.8,48.2,63,30.12,10.0,East,5.8,-,N/A,,Clear,80,2012-09-01 09:53:00
5:13 AM,60.8,48.2,63,30.12,10.0,ENE,4.6,-,N/A,,Scattered Clouds,70,2012-09-01 10:13:00
5:32 AM,60.8,46.4,59,30.12,10.0,East,5.8,-,N/A,,Clear,80,2012-09-01 10:32:00
5:53 AM,59.0,46.4,63,30.12,10.0,East,4.6,-,N/A,,Clear,80,2012-09-01 10:53:00
6:13 AM,57.2,46.4,67,30.12,10.0,East,4.6,-,N/A,,Clear,90,2012-09-01 11:13:00
6:33 AM,57.2,46.4,67,30.12,10.0,East,4.6,-,N/A,,Clear,80,2012-09-01 11:33:00
6:53 AM,57.2,48.2,72,30.13,10.0,ENE,4.6,-,N/A,,Clear,70,2012-09-01 11:53:00
7:13 AM,59.0,48.2,67,30.14,10.0,ENE,4.6,-,N/A,,Clear,60,2012-09-01 12:13:00
7:33 AM,60.8,48.2,63,30.14,10.0,ENE,4.6,-,N/A,,Clear,60,2012-09-01 12:33:00
7:53 AM,60.8,48.2,63,30.15,10.0,ENE,4.6,-,N/A,,Clear,60,2012-09-01 12:53:00
8:13 AM,62.6,50.0,63,30.15,10.0,ENE,4.6,-,N/A,,Clear,70,2012-09-01 13:13:00
8:33 AM,64.4,50.0,59,30.14,10.0,East,6.9,-,N/A,,Clear,80,2012-09-01 13:33:00
8:53 AM,66.2,51.8,60,30.14,10.0,East,9.2,-,N/A,,Clear,90,2012-09-01 13:53:00
9:13 AM,68.0,51.8,56,30.14,10.0,East,8.1,-,N/A,,Clear,80,2012-09-01 14:13:00
9:33 AM,69.8,53.6,56,30.14,10.0,East,11.5,-,N/A,,Clear,90,2012-09-01 14:33:00
9:53 AM,73.4,53.6,50,30.14,10.0,ESE,10.4,-,N/A,,Clear,110,2012-09-01 14:53:00
10:13 AM,73.4,55.4,53,30.14,10.0,East,9.2,-,N/A,,Clear,100,2012-09-01 15:13:00
10:33 AM,75.2,55.4,50,30.14,10.0,ESE,10.4,-,N/A,,Clear,120,2012-09-01 15:33:00
11:13 AM,78.8,55.4,44,30.14,10.0,ESE,9.2,-,N/A,,Clear,110,2012-09-01 16:13:00
11:32 AM,78.8,55.4,44,30.13,10.0,ESE,10.4,-,N/A,,Clear,110,2012-09-01 16:32:00
11:53 AM,80.6,55.4,42,30.13,10.0,East,10.4,-,N/A,,Clear,100,2012-09-01 16:53:00
12:13 PM,80.6,53.6,39,30.12,10.0,SE,12.7,18.4,N/A,,Clear,130,2012-09-01 17:13:00
12:32 PM,82.4,51.8,35,30.12,10.0,ESE,17.3,-,N/A,,Clear,110,2012-09-01 17:32:00
12:53 PM,82.4,51.8,35,30.10,10.0,SE,13.8,-,N/A,,Clear,130,2012-09-01 17:53:00
1:13 PM,82.4,51.8,35,30.10,10.0,SE,12.7,18.4,N/A,,Clear,130,2012-09-01 18:13:00
1:32 PM,82.4,51.8,35,30.10,10.0,SE,10.4,-,N/A,,Clear,140,2012-09-01 18:32:00
1:53 PM,84.2,51.8,33,30.10,10.0,SE,12.7,17.3,N/A,,Clear,130,2012-09-01 18:53:00
2:13 PM,84.2,51.8,33,30.09,10.0,SE,15.0,19.6,N/A,,Clear,130,2012-09-01 19:13:00
2:32 PM,84.2,51.8,33,30.08,10.0,SE,10.4,28.8,N/A,,Clear,130,2012-09-01 19:32:00
3:13 PM,86.0,51.8,31,30.07,10.0,ESE,13.8,19.6,N/A,,Clear,110,2012-09-01 20:13:00
3:32 PM,84.2,51.8,33,30.06,10.0,East,15.0,19.6,N/A,,Clear,100,2012-09-01 20:32:00
3:53 PM,84.2,51.8,33,30.06,10.0,SE,16.1,21.9,N/A,,Clear,130,2012-09-01 20:53:00
4:13 PM,84.2,51.8,33,30.05,10.0,East,15.0,19.6,N/A,,Clear,100,2012-09-01 21:13:00
4:32 PM,84.2,51.8,33,30.05,10.0,ESE,15.0,-,N/A,,Clear,120,2012-09-01 21:32:00
5:13 PM,84.2,50.0,30,30.04,10.0,ESE,15.0,-,N/A,,Clear,120,2012-09-01 22:13:00
5:32 PM,84.2,50.0,30,30.04,10.0,ESE,13.8,-,N/A,,Clear,120,2012-09-01 22:32:00
5:53 PM,82.4,51.8,35,30.03,10.0,ESE,12.7,-,N/A,,Clear,110,2012-09-01 22:53:00
6:13 PM,82.4,48.2,30,30.03,10.0,SE,12.7,-,N/A,,Clear,130,2012-09-01 23:13:00
6:32 PM,82.4,48.2,30,30.04,10.0,ESE,10.4,-,N/A,,Clear,120,2012-09-01 23:32:00
6:53 PM,80.6,50.0,34,30.04,10.0,SE,9.2,-,N/A,,Clear,130,2012-09-01 23:53:00
7:13 PM,78.8,50.0,36,30.03,10.0,SE,5.8,-,N/A,,Clear,130,2012-09-02 00:13:00
7:32 PM,75.2,51.8,44,30.04,10.0,SE,3.5,-,N/A,,Clear,140,2012-09-02 00:32:00
7:53 PM,71.6,51.8,50,30.03,10.0,SE,4.6,-,N/A,,Clear,130,2012-09-02 00:53:00
8:13 PM,68.0,48.2,49,30.04,10.0,SE,3.5,-,N/A,,Clear,130,2012-09-02 01:13:00
8:33 PM,66.2,50.0,56,30.04,10.0,ESE,4.6,-,N/A,,Scattered Clouds,120,2012-09-02 01:33:00
8:53 PM,66.2,53.6,64,30.03,10.0,SE,5.8,-,N/A,,Scattered Clouds,130,2012-09-02 01:53:00
9:12 PM,66.2,53.6,64,30.03,10.0,SE,6.9,-,N/A,,Clear,140,2012-09-02 02:12:00
9:33 PM,66.2,53.6,64,30.03,10.0,SE,5.8,-,N/A,,Clear,140,2012-09-02 02:33:00
9:53 PM,66.2,53.6,64,30.03,10.0,SE,4.6,-,N/A,,Clear,140,2012-09-02 02:53:00
10:12 PM,64.4,50.0,59,30.03,10.0,SE,5.8,-,N/A,,Clear,140,2012-09-02 03:12:00
10:33 PM,62.6,48.2,59,30.02,10.0,SE,5.8,-,N/A,,Scattered Clouds,140,2012-09-02 03:33:00
10:53 PM,60.8,48.2,63,30.02,10.0,SE,4.6,-,N/A,,Clear,130,2012-09-02 03:53:00
11:12 PM,60.8,48.2,63,30.02,10.0,SE,3.5,-,N/A,,Clear,130,2012-09-02 04:12:00
11:33 PM,62.6,51.8,68,30.02,10.0,Calm,Calm,-,N/A,,Clear,0,2012-09-02 04:33:00
11:53 PM,60.8,50.0,68,30.02,10.0,SE,3.5,-,N/A,,Scattered Clouds,140,2012-09-02 04:53:00